Portada
METAR-TAF:

METAR-TAF

Aeropuertos :

Asaluyeh, Irán

latitud: 27-22-46N, longitud: 52-44-15E, altitud: 8 m

Observación

El informe se hizo hace 1 hora y 6 minutos, a las 12:00 UTC
Viento 12 kt del oeste-noroeste
Temperatura 24°C
Humedad 47%
Presión 1013 hPa
Visibilidad 10 km o más
sin nubes por debajo de 1500 m y sin presencia de cumulonimbus.

METAR: OIBP 271200Z 30012KT CAVOK 24/12 Q1012 A2991

Hora: 16:36 (13:06 UTC)

Pronóstico

El informe se hizo hace 1 hora y 36 minutos, a las 11:30 UTC
Pronóstico válido del 27 a las 12 UTC al 27 a las 21 UTC
Viento 8 kt del oeste-noroeste
Visibilidad: 7000 m
Temporalmente
del 27 a las 12 UTC al 27 a las 18 UTC
Viento 18 kt del oeste-noroeste

TAF: OIBP 271130Z 2712/2721 30008KT 7000 NSC TEMPO 2712/2718 30018KT

Observaciones y pronósticos meteorológicos de más de 4000 aeropuertos (mensajes METAR y TAF).

Los puntos amarillos y rojos representan las estaciones disponibles.

Ponga el ratón en el punto deseado para ver el nombre de la estación.

Haga clic para ver las observaciones y los pronósticos meteorológicos.

Para cambiar el mapa : haga clic en los botones verdes con una cruz de color negro para hacer un zoom, en el botón verde con un guión para alejar o en las flechas verdes para mapas adyacentes.


METAR-TAF: